createdAt,value
2019-06-20T00:05:49.847Z,19.40
2019-06-20T00:09:12.857Z,19.30
2019-06-20T00:15:25.299Z,19.30
2019-06-20T00:21:20.641Z,19.20
2019-06-20T00:24:08.181Z,19.20
2019-06-20T00:27:14.421Z,19.10
2019-06-20T00:29:52.535Z,19.00
2019-06-20T00:32:47.563Z,18.80
2019-06-20T00:35:23.620Z,18.80
2019-06-20T00:38:14.143Z,18.80
2019-06-20T00:41:09.605Z,18.80
2019-06-20T00:43:51.231Z,18.80
2019-06-20T00:46:59.644Z,18.70
2019-06-20T00:49:43.985Z,18.70
2019-06-20T00:52:49.753Z,18.70
2019-06-20T00:55:41.009Z,18.70
2019-06-20T00:58:32.005Z,18.70
2019-06-20T01:01:25.658Z,18.70
2019-06-20T01:04:13.109Z,18.70
2019-06-20T01:06:45.850Z,18.70
2019-06-20T01:09:25.895Z,18.70
2019-06-20T01:12:04.028Z,18.70
2019-06-20T01:14:42.093Z,18.90
2019-06-20T01:20:38.635Z,18.90
2019-06-20T01:23:26.523Z,18.90
2019-06-20T01:26:17.677Z,18.70
2019-06-20T01:28:54.887Z,18.40
2019-06-20T01:31:52.914Z,18.60
2019-06-20T01:34:36.666Z,18.60
2019-06-20T01:37:30.007Z,18.50
2019-06-20T01:40:22.280Z,18.70
2019-06-20T01:42:58.910Z,18.80
2019-06-20T01:46:04.987Z,18.80
2019-06-20T01:48:43.048Z,18.80
2019-06-20T01:51:27.695Z,18.70
2019-06-20T01:54:16.090Z,18.60
2019-06-20T01:57:08.675Z,18.60
2019-06-20T01:59:49.270Z,18.60
2019-06-20T02:02:52.614Z,18.60
2019-06-20T02:05:34.234Z,18.70
2019-06-20T02:08:32.977Z,18.70
2019-06-20T02:11:22.387Z,18.70
2019-06-20T02:14:13.633Z,18.70
2019-06-20T02:17:12.866Z,18.60
2019-06-20T02:20:04.116Z,18.70
2019-06-20T02:22:58.210Z,18.60
2019-06-20T02:25:54.921Z,18.60
2019-06-20T02:28:34.770Z,18.60
2019-06-20T02:31:21.693Z,18.10
2019-06-20T02:34:24.955Z,18.60
2019-06-20T02:37:08.731Z,18.60
2019-06-20T02:39:50.701Z,18.70
2019-06-20T02:42:34.518Z,18.70
2019-06-20T02:45:21.999Z,18.70
2019-06-20T02:48:02.741Z,18.70
2019-06-20T02:50:50.354Z,18.60
2019-06-20T02:53:33.425Z,18.60
2019-06-20T02:56:22.372Z,18.80
2019-06-20T02:59:13.719Z,18.80
2019-06-20T03:02:06.039Z,18.90
2019-06-20T03:04:53.709Z,18.70
2019-06-20T03:07:36.976Z,18.70
2019-06-20T03:10:18.580Z,18.70
2019-06-20T03:13:13.567Z,18.60
2019-06-20T03:15:58.160Z,18.70
2019-06-20T03:18:49.545Z,18.70
2019-06-20T03:21:25.207Z,18.80
2019-06-20T03:24:30.546Z,18.80
2019-06-20T03:27:16.453Z,18.70
2019-06-20T03:30:13.457Z,18.60
2019-06-20T03:33:00.621Z,18.50
2019-06-20T03:35:50.137Z,18.50
2019-06-20T03:38:36.987Z,18.50
2019-06-20T03:41:29.356Z,18.50
2019-06-20T03:44:20.403Z,18.50
2019-06-20T03:47:13.190Z,18.80
2019-06-20T03:50:05.468Z,18.70
2019-06-20T03:52:51.211Z,18.70
2019-06-20T03:55:34.085Z,18.60
2019-06-20T03:58:22.252Z,18.50
2019-06-20T04:01:15.566Z,18.50
2019-06-20T04:03:58.167Z,18.50
2019-06-20T04:06:42.310Z,18.60
2019-06-20T04:09:28.363Z,18.80
2019-06-20T04:12:20.455Z,18.90
2019-06-20T04:15:14.980Z,18.80
2019-06-20T04:17:54.022Z,18.80
2019-06-20T04:20:43.016Z,18.70
2019-06-20T04:23:34.333Z,18.60
2019-06-20T04:26:13.338Z,18.60
2019-06-20T04:29:01.058Z,18.60
2019-06-20T04:31:46.805Z,18.70
2019-06-20T04:34:36.098Z,18.70
2019-06-20T04:37:39.961Z,18.80
2019-06-20T04:40:40.359Z,18.80
2019-06-20T04:44:19.122Z,18.90
2019-06-20T04:47:11.403Z,19.50
2019-06-20T04:50:01.462Z,19.90
2019-06-20T04:53:10.646Z,19.90
2019-06-20T04:55:51.244Z,20.10
2019-06-20T04:58:41.692Z,20.10
2019-06-20T05:01:21.837Z,20.40
2019-06-20T05:04:22.240Z,20.60
2019-06-20T05:13:44.902Z,20.40
2019-06-20T05:16:59.035Z,20.70
2019-06-20T05:19:36.684Z,21.00
2019-06-20T05:22:32.390Z,21.00
2019-06-20T05:25:28.620Z,21.10
2019-06-20T05:28:28.339Z,21.00
2019-06-20T05:31:09.212Z,21.10
2019-06-20T05:34:17.047Z,21.10
2019-06-20T05:37:06.997Z,20.40
2019-06-20T05:43:23.953Z,19.70
2019-06-20T05:46:10.694Z,19.60
2019-06-20T05:48:58.998Z,19.40
2019-06-20T05:51:55.183Z,19.40
2019-06-20T05:54:58.640Z,19.40
2019-06-20T05:57:42.150Z,19.30
2019-06-20T06:00:24.047Z,19.20
2019-06-20T06:03:19.767Z,19.20
2019-06-20T06:05:56.735Z,19.10
2019-06-20T06:08:48.832Z,19.20
2019-06-20T06:15:21.700Z,19.40
2019-06-20T06:18:14.652Z,19.50
2019-06-20T06:21:19.916Z,19.70
2019-06-20T06:28:31.037Z,21.50
2019-06-20T06:31:52.441Z,23.20
2019-06-20T06:42:34.979Z,22.90
2019-06-20T06:45:50.260Z,21.80
2019-06-20T06:48:56.731Z,21.40
2019-06-20T06:51:43.759Z,21.00
2019-06-20T06:54:39.990Z,20.60
2019-06-20T06:58:02.262Z,20.40
2019-06-20T07:01:05.453Z,20.30
2019-06-20T07:04:02.781Z,20.40
2019-06-20T07:07:15.053Z,21.60
2019-06-20T07:13:13.742Z,22.70
2019-06-20T07:16:09.129Z,24.00
2019-06-20T07:18:58.450Z,25.70
2019-06-20T07:22:11.735Z,26.80
2019-06-20T07:25:28.458Z,27.30
2019-06-20T07:28:35.422Z,27.20
2019-06-20T07:31:37.752Z,28.50
2019-06-20T07:34:26.236Z,29.50
2019-06-20T07:37:42.856Z,29.00
2019-06-20T07:40:31.110Z,28.00
2019-06-20T07:43:27.403Z,26.20
2019-06-20T07:46:20.902Z,24.80
2019-06-20T07:49:29.740Z,23.90
2019-06-20T07:52:19.120Z,23.30
2019-06-20T07:55:25.987Z,23.20
2019-06-20T07:58:39.499Z,23.20
2019-06-20T08:01:42.264Z,23.80
2019-06-20T08:05:15.671Z,24.30
2019-06-20T08:08:06.659Z,24.30
2019-06-20T08:11:39.119Z,23.70
2019-06-20T08:14:55.822Z,23.40
2019-06-20T08:17:54.569Z,23.70
2019-06-20T08:21:01.818Z,24.10
2019-06-20T08:24:14.249Z,23.70
2019-06-20T08:27:16.293Z,23.00
2019-06-20T08:33:27.177Z,25.20
2019-06-20T08:36:51.352Z,25.60
2019-06-20T08:40:14.715Z,25.30
2019-06-20T08:47:15.054Z,25.20
2019-06-20T08:50:35.280Z,25.20
2019-06-20T09:00:59.686Z,24.70
2019-06-20T09:04:11.112Z,25.70
2019-06-20T09:07:37.599Z,25.70
2019-06-20T09:10:48.338Z,26.10
2019-06-20T09:13:48.047Z,25.40
2019-06-20T09:17:03.200Z,24.60
2019-06-20T09:20:16.126Z,24.70
2019-06-20T09:23:41.440Z,25.30
2019-06-20T09:30:39.175Z,25.60
2019-06-20T09:33:52.165Z,24.90
2019-06-20T09:36:55.658Z,25.50
2019-06-20T09:40:14.451Z,26.60
2019-06-20T09:46:35.339Z,27.90
2019-06-20T09:49:40.615Z,28.00
2019-06-20T09:53:11.730Z,28.20
2019-06-20T09:55:57.890Z,28.30
2019-06-20T09:59:27.291Z,28.20
2019-06-20T10:02:21.351Z,28.20
2019-06-20T10:05:23.677Z,28.70
2019-06-20T10:08:27.718Z,28.80
2019-06-20T10:11:25.725Z,28.90
2019-06-20T10:14:43.320Z,28.70
2019-06-20T10:21:47.871Z,28.20
2019-06-20T10:24:45.766Z,28.10
2019-06-20T10:27:46.554Z,27.20
2019-06-20T10:31:06.414Z,27.50
2019-06-20T10:34:19.513Z,27.20
2019-06-20T10:37:29.542Z,26.90
2019-06-20T10:40:34.398Z,26.60
2019-06-20T10:44:12.602Z,26.20
2019-06-20T10:47:31.614Z,26.40
2019-06-20T10:57:02.032Z,25.90
2019-06-20T11:04:18.195Z,26.50
2019-06-20T11:10:41.900Z,27.20
2019-06-20T11:13:51.478Z,26.80
2019-06-20T11:17:06.277Z,26.30
2019-06-20T11:20:15.694Z,25.90
2019-06-20T11:23:43.028Z,25.50
2019-06-20T11:27:18.078Z,24.80
2019-06-20T11:30:44.519Z,24.20
2019-06-20T11:37:48.090Z,24.20
2019-06-20T11:41:25.229Z,24.10
2019-06-20T11:48:54.096Z,24.50
2019-06-20T11:52:46.027Z,24.40
2019-06-20T12:02:57.915Z,23.70
2019-06-20T12:06:07.619Z,23.60
2019-06-20T12:13:05.535Z,23.90
2019-06-20T12:16:35.017Z,24.10
2019-06-20T12:20:12.432Z,24.20
2019-06-20T12:26:39.064Z,24.50
2019-06-20T12:29:37.748Z,24.90
2019-06-20T12:32:47.678Z,25.00
2019-06-20T12:35:56.187Z,24.80
2019-06-20T12:39:12.014Z,24.70
2019-06-20T12:42:53.576Z,24.50
2019-06-20T12:49:30.805Z,23.80
2019-06-20T12:52:31.777Z,23.50
2019-06-20T12:55:31.514Z,23.40
2019-06-20T12:59:01.235Z,23.40
2019-06-20T13:02:40.450Z,23.20
2019-06-20T13:06:14.388Z,23.80
2019-06-20T13:13:00.295Z,24.30
2019-06-20T13:19:48.522Z,24.20
2019-06-20T13:23:12.479Z,24.30
2019-06-20T13:26:44.072Z,24.30
2019-06-20T13:30:04.714Z,24.10
2019-06-20T13:33:13.626Z,24.00
2019-06-20T13:39:52.987Z,23.50
2019-06-20T13:43:05.046Z,23.40
2019-06-20T13:46:44.577Z,23.30
2019-06-20T13:50:08.967Z,23.20
2019-06-20T13:53:58.736Z,23.10
2019-06-20T13:57:26.064Z,22.70
2019-06-20T14:01:00.041Z,22.70
2019-06-20T14:04:04.197Z,22.50
2019-06-20T14:07:20.859Z,22.50
2019-06-20T14:17:12.537Z,22.20
2019-06-20T14:24:40.056Z,22.30
2019-06-20T14:27:53.835Z,22.30
2019-06-20T14:31:12.891Z,22.20
2019-06-20T14:34:54.815Z,22.30
2019-06-20T14:41:24.830Z,22.30
2019-06-20T14:44:12.308Z,22.10
2019-06-20T14:47:24.861Z,22.00
2019-06-20T14:50:36.029Z,21.90
2019-06-20T14:54:19.888Z,21.70
2019-06-20T14:57:46.477Z,21.90
2019-06-20T15:03:51.860Z,21.80
2019-06-20T15:14:40.869Z,21.80
2019-06-20T15:17:57.949Z,21.70
2019-06-20T15:21:05.089Z,21.70
2019-06-20T15:31:27.994Z,21.20
2019-06-20T15:34:19.758Z,21.20
2019-06-20T15:37:22.010Z,21.10
2019-06-20T15:40:09.466Z,21.20
2019-06-20T15:43:10.941Z,21.40
2019-06-20T15:45:56.078Z,21.40
2019-06-20T15:48:59.802Z,21.30
2019-06-20T15:51:49.723Z,21.50
2019-06-20T15:54:50.223Z,21.60
2019-06-20T15:58:06.245Z,21.70
2019-06-20T16:01:31.224Z,21.90
2019-06-20T16:08:09.926Z,21.70
2019-06-20T16:11:20.162Z,21.70
2019-06-20T16:15:14.532Z,21.70
2019-06-20T16:19:02.255Z,21.60
2019-06-20T16:25:55.311Z,21.50
2019-06-20T16:35:39.344Z,21.50
2019-06-20T16:38:46.321Z,21.30
2019-06-20T16:42:12.579Z,21.10
2019-06-20T16:45:06.801Z,20.70
2019-06-20T16:48:10.831Z,20.30
2019-06-20T16:51:01.094Z,19.90
2019-06-20T16:54:15.085Z,19.70
2019-06-20T16:57:25.517Z,19.50
2019-06-20T17:00:30.175Z,19.40
2019-06-20T17:03:15.217Z,19.30
2019-06-20T17:06:00.724Z,19.20
2019-06-20T17:08:53.293Z,19.20
2019-06-20T17:15:35.623Z,19.20
2019-06-20T17:18:19.613Z,19.20
2019-06-20T17:21:01.918Z,19.20
2019-06-20T17:23:51.148Z,19.10
2019-06-20T17:26:30.811Z,18.90
2019-06-20T17:29:38.504Z,18.90
2019-06-20T17:32:27.442Z,19.00
2019-06-20T17:35:19.629Z,18.70
2019-06-20T17:38:12.452Z,18.70
2019-06-20T17:40:53.809Z,18.80
2019-06-20T17:43:42.631Z,19.00
2019-06-20T17:46:36.815Z,19.20
2019-06-20T17:49:21.760Z,19.10
2019-06-20T17:52:32.291Z,19.20
2019-06-20T17:56:29.319Z,19.30
2019-06-20T17:58:37.825Z,19.40
2019-06-20T18:01:21.990Z,19.30
2019-06-20T18:04:13.582Z,19.20
2019-06-20T18:06:59.255Z,19.20
2019-06-20T18:09:52.689Z,19.20
2019-06-20T18:13:19.145Z,19.20
2019-06-20T18:16:03.169Z,19.20
2019-06-20T18:18:48.440Z,19.40
2019-06-20T18:22:10.681Z,19.20
2019-06-20T18:25:49.624Z,19.00
2019-06-20T18:29:15.836Z,19.20
2019-06-20T18:32:45.840Z,20.00
2019-06-20T18:35:45.991Z,20.20
2019-06-20T18:38:55.958Z,20.20
2019-06-20T18:42:11.534Z,20.30
2019-06-20T18:52:02.388Z,20.10
2019-06-20T18:54:52.196Z,20.10
2019-06-20T18:57:48.725Z,19.80
2019-06-20T19:00:46.069Z,19.90
2019-06-20T19:10:03.507Z,19.90
2019-06-20T19:12:52.517Z,19.80
2019-06-20T19:16:01.841Z,19.80
2019-06-20T19:19:35.657Z,19.90
2019-06-20T19:26:42.665Z,20.30
2019-06-20T19:33:29.642Z,20.10
2019-06-20T19:36:32.778Z,20.00
2019-06-20T19:39:37.271Z,19.90
2019-06-20T19:42:32.412Z,19.80
2019-06-20T19:45:29.587Z,20.00
2019-06-20T19:48:50.173Z,19.90
2019-06-20T19:51:45.332Z,19.90
2019-06-20T19:59:12.568Z,19.90
2019-06-20T20:02:37.747Z,19.90
2019-06-20T20:05:58.642Z,20.50
2019-06-20T20:08:56.483Z,20.60
2019-06-20T20:15:39.961Z,20.00
2019-06-20T20:18:46.844Z,19.60
2019-06-20T20:22:25.919Z,19.10
2019-06-20T20:26:08.894Z,18.90
2019-06-20T20:36:36.666Z,19.50
2019-06-20T20:50:57.051Z,18.40
2019-06-20T20:57:05.700Z,18.40
2019-06-20T21:01:21.429Z,18.20
2019-06-20T21:04:38.196Z,18.20
2019-06-20T21:08:37.003Z,18.20
2019-06-20T21:12:17.062Z,18.20
2019-06-20T21:19:29.533Z,18.10
2019-06-20T21:22:37.849Z,18.00
2019-06-20T21:25:44.679Z,18.00
2019-06-20T21:28:55.547Z,18.00
2019-06-20T21:32:39.767Z,18.00
2019-06-20T21:39:24.948Z,18.10
2019-06-20T21:46:36.613Z,18.10
2019-06-20T21:51:36.600Z,18.20
2019-06-20T21:54:06.603Z,18.20
2019-06-20T21:57:44.989Z,18.10
2019-06-20T22:00:53.920Z,18.00
2019-06-20T22:03:51.785Z,18.10
2019-06-20T22:07:22.523Z,18.20
2019-06-20T22:10:56.875Z,18.20
2019-06-20T22:14:12.786Z,18.20
2019-06-20T22:17:07.094Z,18.30
2019-06-20T22:20:44.777Z,18.20
2019-06-20T22:23:48.361Z,18.20
2019-06-20T22:27:15.535Z,18.20
2019-06-20T22:34:00.923Z,18.00
2019-06-20T22:37:33.083Z,17.90
2019-06-20T22:41:19.618Z,17.70
2019-06-20T22:52:17.555Z,17.40
2019-06-20T22:55:45.641Z,17.40
2019-06-20T23:02:34.160Z,17.30
2019-06-20T23:10:10.675Z,17.30
2019-06-20T23:13:39.186Z,17.20
2019-06-20T23:22:22.560Z,17.20
2019-06-20T23:25:36.222Z,17.20
2019-06-20T23:28:59.453Z,17.20
2019-06-20T23:31:50.269Z,17.20
2019-06-20T23:34:59.507Z,17.10
2019-06-20T23:37:48.132Z,17.00
2019-06-20T23:41:07.593Z,17.00
2019-06-20T23:44:55.197Z,17.00
2019-06-20T23:47:05.545Z,17.00
2019-06-20T23:50:03.934Z,17.00
2019-06-20T23:52:57.516Z,17.00
2019-06-20T23:55:38.635Z,17.00
2019-06-20T23:58:44.836Z,16.90
